sensor_id;sensor_type;location;lat;lon;timestamp;P1;durP1;ratioP1;P2;durP2;ratioP2
7529;SDS011;3806;52.270;10.544;2022-11-25T00:03:40;11.40;;;5.10;;
7529;SDS011;3806;52.270;10.544;2022-11-25T00:06:07;10.13;;;5.35;;
7529;SDS011;3806;52.270;10.544;2022-11-25T00:08:33;8.70;;;5.28;;
7529;SDS011;3806;52.270;10.544;2022-11-25T00:10:59;8.20;;;5.22;;
7529;SDS011;3806;52.270;10.544;2022-11-25T00:13:25;14.73;;;5.07;;
7529;SDS011;3806;52.270;10.544;2022-11-25T00:15:51;12.50;;;4.68;;
7529;SDS011;3806;52.270;10.544;2022-11-25T00:18:16;9.52;;;4.78;;
7529;SDS011;3806;52.270;10.544;2022-11-25T00:20:42;8.70;;;5.20;;
7529;SDS011;3806;52.270;10.544;2022-11-25T00:23:07;11.40;;;5.80;;
7529;SDS011;3806;52.270;10.544;2022-11-25T00:25:33;7.43;;;4.57;;
7529;SDS011;3806;52.270;10.544;2022-11-25T00:27:59;9.77;;;4.60;;
7529;SDS011;3806;52.270;10.544;2022-11-25T00:30:24;10.75;;;5.18;;
7529;SDS011;3806;52.270;10.544;2022-11-25T00:32:51;8.80;;;5.22;;
7529;SDS011;3806;52.270;10.544;2022-11-25T00:35:18;11.30;;;5.20;;
7529;SDS011;3806;52.270;10.544;2022-11-25T00:37:43;10.65;;;5.03;;
7529;SDS011;3806;52.270;10.544;2022-11-25T00:40:09;8.40;;;4.47;;
7529;SDS011;3806;52.270;10.544;2022-11-25T00:42:35;13.55;;;4.97;;
7529;SDS011;3806;52.270;10.544;2022-11-25T00:45:19;8.45;;;4.47;;
7529;SDS011;3806;52.270;10.544;2022-11-25T00:47:45;7.57;;;4.40;;
7529;SDS011;3806;52.270;10.544;2022-11-25T00:50:10;6.47;;;3.90;;
7529;SDS011;3806;52.270;10.544;2022-11-25T00:52:36;6.85;;;4.15;;
7529;SDS011;3806;52.270;10.544;2022-11-25T00:55:02;11.05;;;4.82;;
7529;SDS011;3806;52.270;10.544;2022-11-25T00:57:28;11.63;;;4.85;;
7529;SDS011;3806;52.270;10.544;2022-11-25T00:59:54;8.02;;;4.78;;
7529;SDS011;3806;52.270;10.544;2022-11-25T01:02:20;6.88;;;3.88;;
7529;SDS011;3806;52.270;10.544;2022-11-25T01:04:46;6.88;;;4.00;;
7529;SDS011;3806;52.270;10.544;2022-11-25T01:07:12;6.60;;;3.88;;
7529;SDS011;3806;52.270;10.544;2022-11-25T01:09:38;7.25;;;4.50;;
7529;SDS011;3806;52.270;10.544;2022-11-25T01:12:03;8.20;;;4.50;;
7529;SDS011;3806;52.270;10.544;2022-11-25T01:14:29;9.25;;;4.30;;
7529;SDS011;3806;52.270;10.544;2022-11-25T01:16:55;9.95;;;4.25;;
7529;SDS011;3806;52.270;10.544;2022-11-25T01:19:21;5.30;;;3.70;;
7529;SDS011;3806;52.270;10.544;2022-11-25T01:21:47;7.43;;;4.50;;
7529;SDS011;3806;52.270;10.544;2022-11-25T01:24:13;7.05;;;3.92;;
7529;SDS011;3806;52.270;10.544;2022-11-25T01:26:40;5.80;;;3.50;;
7529;SDS011;3806;52.270;10.544;2022-11-25T01:29:09;7.38;;;3.58;;
7529;SDS011;3806;52.270;10.544;2022-11-25T01:31:38;7.13;;;3.80;;
7529;SDS011;3806;52.270;10.544;2022-11-25T01:34:18;8.40;;;3.75;;
7529;SDS011;3806;52.270;10.544;2022-11-25T01:36:46;9.75;;;3.05;;
7529;SDS011;3806;52.270;10.544;2022-11-25T01:39:16;6.85;;;3.13;;
7529;SDS011;3806;52.270;10.544;2022-11-25T01:41:47;8.50;;;3.85;;
7529;SDS011;3806;52.270;10.544;2022-11-25T01:44:14;7.25;;;3.55;;
7529;SDS011;3806;52.270;10.544;2022-11-25T01:49:31;6.18;;;3.13;;
7529;SDS011;3806;52.270;10.544;2022-11-25T01:54:34;6.25;;;3.28;;
7529;SDS011;3806;52.270;10.544;2022-11-25T01:57:24;7.82;;;3.25;;
7529;SDS011;3806;52.270;10.544;2022-11-25T01:59:55;8.80;;;3.20;;
7529;SDS011;3806;52.270;10.544;2022-11-25T02:02:23;9.02;;;3.22;;
7529;SDS011;3806;52.270;10.544;2022-11-25T02:04:49;9.70;;;3.63;;
7529;SDS011;3806;52.270;10.544;2022-11-25T02:07:24;5.13;;;3.17;;
7529;SDS011;3806;52.270;10.544;2022-11-25T02:09:53;11.68;;;3.70;;
7529;SDS011;3806;52.270;10.544;2022-11-25T02:12:20;7.70;;;3.03;;
7529;SDS011;3806;52.270;10.544;2022-11-25T02:14:47;7.93;;;3.38;;
7529;SDS011;3806;52.270;10.544;2022-11-25T02:17:15;8.15;;;3.22;;
7529;SDS011;3806;52.270;10.544;2022-11-25T02:22:59;6.90;;;3.05;;
7529;SDS011;3806;52.270;10.544;2022-11-25T02:27:49;5.82;;;2.70;;
7529;SDS011;3806;52.270;10.544;2022-11-25T02:30:19;6.82;;;2.40;;
7529;SDS011;3806;52.270;10.544;2022-11-25T02:32:45;7.88;;;2.90;;
7529;SDS011;3806;52.270;10.544;2022-11-25T02:35:20;9.75;;;3.60;;
7529;SDS011;3806;52.270;10.544;2022-11-25T02:37:54;7.60;;;3.15;;
7529;SDS011;3806;52.270;10.544;2022-11-25T02:40:23;7.90;;;2.95;;
7529;SDS011;3806;52.270;10.544;2022-11-25T02:42:51;12.65;;;2.97;;
7529;SDS011;3806;52.270;10.544;2022-11-25T02:45:21;6.20;;;3.17;;
7529;SDS011;3806;52.270;10.544;2022-11-25T02:48:12;7.20;;;2.70;;
7529;SDS011;3806;52.270;10.544;2022-11-25T02:50:37;4.85;;;2.72;;
7529;SDS011;3806;52.270;10.544;2022-11-25T02:53:03;6.35;;;2.53;;
7529;SDS011;3806;52.270;10.544;2022-11-25T02:55:28;5.10;;;2.55;;
7529;SDS011;3806;52.270;10.544;2022-11-25T02:57:54;5.50;;;3.03;;
7529;SDS011;3806;52.270;10.544;2022-11-25T03:00:20;6.90;;;3.15;;
7529;SDS011;3806;52.270;10.544;2022-11-25T03:02:45;4.93;;;2.65;;
7529;SDS011;3806;52.270;10.544;2022-11-25T03:05:12;5.07;;;2.83;;
7529;SDS011;3806;52.270;10.544;2022-11-25T03:07:37;4.63;;;2.65;;
7529;SDS011;3806;52.270;10.544;2022-11-25T03:10:03;7.50;;;2.72;;
7529;SDS011;3806;52.270;10.544;2022-11-25T03:12:29;5.25;;;2.53;;
7529;SDS011;3806;52.270;10.544;2022-11-25T03:14:55;4.22;;;2.50;;
7529;SDS011;3806;52.270;10.544;2022-11-25T03:17:21;7.25;;;2.88;;
7529;SDS011;3806;52.270;10.544;2022-11-25T03:19:46;11.25;;;3.65;;
7529;SDS011;3806;52.270;10.544;2022-11-25T03:22:12;10.38;;;3.10;;
7529;SDS011;3806;52.270;10.544;2022-11-25T03:24:38;8.38;;;3.22;;
7529;SDS011;3806;52.270;10.544;2022-11-25T03:27:03;6.45;;;3.17;;
7529;SDS011;3806;52.270;10.544;2022-11-25T03:29:29;17.90;;;3.88;;
7529;SDS011;3806;52.270;10.544;2022-11-25T03:31:54;6.28;;;2.80;;
7529;SDS011;3806;52.270;10.544;2022-11-25T03:34:20;8.48;;;3.30;;
7529;SDS011;3806;52.270;10.544;2022-11-25T03:36:46;6.53;;;3.05;;
7529;SDS011;3806;52.270;10.544;2022-11-25T03:39:11;9.13;;;3.33;;
7529;SDS011;3806;52.270;10.544;2022-11-25T03:41:37;8.45;;;3.33;;
7529;SDS011;3806;52.270;10.544;2022-11-25T03:44:02;9.23;;;3.20;;
7529;SDS011;3806;52.270;10.544;2022-11-25T03:46:28;6.70;;;3.67;;
7529;SDS011;3806;52.270;10.544;2022-11-25T03:48:54;10.25;;;3.40;;
7529;SDS011;3806;52.270;10.544;2022-11-25T03:51:19;7.10;;;3.22;;
7529;SDS011;3806;52.270;10.544;2022-11-25T03:53:45;8.07;;;4.22;;
7529;SDS011;3806;52.270;10.544;2022-11-25T03:56:11;13.60;;;4.07;;
7529;SDS011;3806;52.270;10.544;2022-11-25T03:58:37;8.30;;;3.95;;
7529;SDS011;3806;52.270;10.544;2022-11-25T04:01:03;5.78;;;3.50;;
7529;SDS011;3806;52.270;10.544;2022-11-25T04:03:30;9.20;;;4.10;;
7529;SDS011;3806;52.270;10.544;2022-11-25T04:05:56;6.90;;;3.92;;
7529;SDS011;3806;52.270;10.544;2022-11-25T04:08:22;7.38;;;3.20;;
7529;SDS011;3806;52.270;10.544;2022-11-25T04:10:48;8.73;;;4.45;;
7529;SDS011;3806;52.270;10.544;2022-11-25T04:13:14;9.00;;;3.80;;
7529;SDS011;3806;52.270;10.544;2022-11-25T04:15:43;8.90;;;3.70;;
7529;SDS011;3806;52.270;10.544;2022-11-25T04:18:11;9.27;;;3.80;;
7529;SDS011;3806;52.270;10.544;2022-11-25T04:20:37;8.35;;;4.38;;
7529;SDS011;3806;52.270;10.544;2022-11-25T04:23:02;9.50;;;4.85;;
7529;SDS011;3806;52.270;10.544;2022-11-25T04:25:30;7.63;;;4.53;;
7529;SDS011;3806;52.270;10.544;2022-11-25T04:27:56;7.65;;;4.03;;
7529;SDS011;3806;52.270;10.544;2022-11-25T04:30:21;7.50;;;4.10;;
7529;SDS011;3806;52.270;10.544;2022-11-25T04:32:47;8.35;;;4.35;;
7529;SDS011;3806;52.270;10.544;2022-11-25T04:35:12;6.90;;;4.07;;
7529;SDS011;3806;52.270;10.544;2022-11-25T04:37:38;7.30;;;3.80;;
7529;SDS011;3806;52.270;10.544;2022-11-25T04:40:04;8.82;;;4.35;;
7529;SDS011;3806;52.270;10.544;2022-11-25T04:42:32;6.18;;;3.60;;
7529;SDS011;3806;52.270;10.544;2022-11-25T04:45:19;10.20;;;4.03;;
7529;SDS011;3806;52.270;10.544;2022-11-25T04:47:44;8.75;;;3.78;;
7529;SDS011;3806;52.270;10.544;2022-11-25T04:50:17;5.10;;;3.15;;
7529;SDS011;3806;52.270;10.544;2022-11-25T04:52:44;10.52;;;3.67;;
7529;SDS011;3806;52.270;10.544;2022-11-25T04:55:12;10.30;;;3.40;;
7529;SDS011;3806;52.270;10.544;2022-11-25T04:57:38;12.65;;;3.58;;
7529;SDS011;3806;52.270;10.544;2022-11-25T05:00:04;9.32;;;4.63;;
7529;SDS011;3806;52.270;10.544;2022-11-25T05:02:31;8.35;;;2.97;;
7529;SDS011;3806;52.270;10.544;2022-11-25T05:04:56;5.25;;;3.03;;
7529;SDS011;3806;52.270;10.544;2022-11-25T05:07:23;5.75;;;3.08;;
7529;SDS011;3806;52.270;10.544;2022-11-25T05:09:50;5.45;;;2.47;;
7529;SDS011;3806;52.270;10.544;2022-11-25T05:12:20;8.27;;;3.55;;
7529;SDS011;3806;52.270;10.544;2022-11-25T05:14:48;9.35;;;3.10;;
7529;SDS011;3806;52.270;10.544;2022-11-25T05:17:15;5.25;;;2.90;;
7529;SDS011;3806;52.270;10.544;2022-11-25T05:19:45;7.68;;;3.15;;
7529;SDS011;3806;52.270;10.544;2022-11-25T05:22:11;10.45;;;4.30;;
7529;SDS011;3806;52.270;10.544;2022-11-25T05:24:38;6.20;;;2.95;;
7529;SDS011;3806;52.270;10.544;2022-11-25T05:27:04;6.75;;;2.55;;
7529;SDS011;3806;52.270;10.544;2022-11-25T05:29:30;6.63;;;3.20;;
7529;SDS011;3806;52.270;10.544;2022-11-25T05:31:56;6.15;;;3.17;;
7529;SDS011;3806;52.270;10.544;2022-11-25T05:34:21;6.30;;;2.78;;
7529;SDS011;3806;52.270;10.544;2022-11-25T05:36:47;5.82;;;3.20;;
7529;SDS011;3806;52.270;10.544;2022-11-25T05:39:12;6.78;;;3.10;;
7529;SDS011;3806;52.270;10.544;2022-11-25T05:41:38;6.93;;;3.25;;
7529;SDS011;3806;52.270;10.544;2022-11-25T05:44:04;6.60;;;2.97;;
7529;SDS011;3806;52.270;10.544;2022-11-25T05:46:30;7.43;;;2.80;;
7529;SDS011;3806;52.270;10.544;2022-11-25T05:48:56;6.60;;;2.92;;
7529;SDS011;3806;52.270;10.544;2022-11-25T05:51:22;4.13;;;2.90;;
7529;SDS011;3806;52.270;10.544;2022-11-25T05:53:49;6.18;;;2.97;;
7529;SDS011;3806;52.270;10.544;2022-11-25T05:56:15;6.50;;;2.95;;
7529;SDS011;3806;52.270;10.544;2022-11-25T05:58:41;6.93;;;3.70;;
7529;SDS011;3806;52.270;10.544;2022-11-25T06:01:07;5.07;;;2.53;;
7529;SDS011;3806;52.270;10.544;2022-11-25T06:03:34;6.70;;;3.17;;
7529;SDS011;3806;52.270;10.544;2022-11-25T06:06:00;6.13;;;3.08;;
7529;SDS011;3806;52.270;10.544;2022-11-25T06:08:26;9.10;;;2.88;;
7529;SDS011;3806;52.270;10.544;2022-11-25T06:10:52;7.72;;;3.38;;
7529;SDS011;3806;52.270;10.544;2022-11-25T06:13:18;7.28;;;3.40;;
7529;SDS011;3806;52.270;10.544;2022-11-25T06:15:44;8.73;;;3.92;;
7529;SDS011;3806;52.270;10.544;2022-11-25T06:18:11;7.82;;;2.83;;
7529;SDS011;3806;52.270;10.544;2022-11-25T06:20:40;6.18;;;3.08;;
7529;SDS011;3806;52.270;10.544;2022-11-25T06:23:07;8.25;;;2.85;;
7529;SDS011;3806;52.270;10.544;2022-11-25T06:25:33;4.82;;;3.13;;
7529;SDS011;3806;52.270;10.544;2022-11-25T06:28:00;9.13;;;3.30;;
7529;SDS011;3806;52.270;10.544;2022-11-25T06:30:27;4.97;;;2.33;;
7529;SDS011;3806;52.270;10.544;2022-11-25T06:32:53;8.15;;;3.05;;
7529;SDS011;3806;52.270;10.544;2022-11-25T06:35:20;7.47;;;3.05;;
7529;SDS011;3806;52.270;10.544;2022-11-25T06:37:45;8.88;;;2.97;;
7529;SDS011;3806;52.270;10.544;2022-11-25T06:40:11;10.07;;;2.95;;
7529;SDS011;3806;52.270;10.544;2022-11-25T06:42:37;11.43;;;2.80;;
7529;SDS011;3806;52.270;10.544;2022-11-25T06:45:03;7.25;;;2.65;;
7529;SDS011;3806;52.270;10.544;2022-11-25T06:47:33;3.88;;;2.65;;
7529;SDS011;3806;52.270;10.544;2022-11-25T06:49:58;4.47;;;2.22;;
7529;SDS011;3806;52.270;10.544;2022-11-25T06:52:29;6.25;;;2.70;;
7529;SDS011;3806;52.270;10.544;2022-11-25T06:54:56;4.75;;;3.10;;
7529;SDS011;3806;52.270;10.544;2022-11-25T06:57:21;8.57;;;2.60;;
7529;SDS011;3806;52.270;10.544;2022-11-25T06:59:47;7.53;;;3.08;;
7529;SDS011;3806;52.270;10.544;2022-11-25T07:02:13;4.68;;;2.60;;
7529;SDS011;3806;52.270;10.544;2022-11-25T07:04:39;6.30;;;2.33;;
7529;SDS011;3806;52.270;10.544;2022-11-25T07:07:05;7.38;;;2.97;;
7529;SDS011;3806;52.270;10.544;2022-11-25T07:09:31;5.95;;;2.60;;
7529;SDS011;3806;52.270;10.544;2022-11-25T07:11:56;7.63;;;2.83;;
7529;SDS011;3806;52.270;10.544;2022-11-25T07:14:22;3.78;;;2.40;;
7529;SDS011;3806;52.270;10.544;2022-11-25T07:16:48;10.23;;;2.92;;
7529;SDS011;3806;52.270;10.544;2022-11-25T07:19:14;6.65;;;2.33;;
7529;SDS011;3806;52.270;10.544;2022-11-25T07:21:41;7.40;;;2.85;;
7529;SDS011;3806;52.270;10.544;2022-11-25T07:24:09;7.72;;;3.05;;
7529;SDS011;3806;52.270;10.544;2022-11-25T07:26:39;8.88;;;2.45;;
7529;SDS011;3806;52.270;10.544;2022-11-25T07:29:08;5.45;;;2.72;;
7529;SDS011;3806;52.270;10.544;2022-11-25T07:31:36;7.03;;;2.53;;
7529;SDS011;3806;52.270;10.544;2022-11-25T07:34:05;4.03;;;2.65;;
7529;SDS011;3806;52.270;10.544;2022-11-25T07:36:35;5.05;;;2.90;;
7529;SDS011;3806;52.270;10.544;2022-11-25T07:39:03;10.80;;;3.45;;
7529;SDS011;3806;52.270;10.544;2022-11-25T07:41:31;10.32;;;2.42;;
7529;SDS011;3806;52.270;10.544;2022-11-25T07:43:58;8.30;;;2.85;;
7529;SDS011;3806;52.270;10.544;2022-11-25T07:46:30;5.47;;;2.88;;
7529;SDS011;3806;52.270;10.544;2022-11-25T07:49:02;7.60;;;2.40;;
7529;SDS011;3806;52.270;10.544;2022-11-25T07:51:30;3.95;;;2.00;;
7529;SDS011;3806;52.270;10.544;2022-11-25T07:53:59;4.05;;;2.30;;
7529;SDS011;3806;52.270;10.544;2022-11-25T07:56:28;6.13;;;3.00;;
7529;SDS011;3806;52.270;10.544;2022-11-25T07:58:55;10.70;;;2.63;;
7529;SDS011;3806;52.270;10.544;2022-11-25T08:01:21;6.00;;;2.47;;
7529;SDS011;3806;52.270;10.544;2022-11-25T08:03:48;6.78;;;3.22;;
7529;SDS011;3806;52.270;10.544;2022-11-25T08:06:15;9.40;;;2.53;;
7529;SDS011;3806;52.270;10.544;2022-11-25T08:08:43;4.85;;;2.72;;
7529;SDS011;3806;52.270;10.544;2022-11-25T08:11:16;6.65;;;3.10;;
7529;SDS011;3806;52.270;10.544;2022-11-25T08:13:44;7.40;;;2.60;;
7529;SDS011;3806;52.270;10.544;2022-11-25T08:16:11;5.13;;;2.53;;
7529;SDS011;3806;52.270;10.544;2022-11-25T08:18:38;5.97;;;2.58;;
7529;SDS011;3806;52.270;10.544;2022-11-25T08:21:05;5.15;;;2.30;;
7529;SDS011;3806;52.270;10.544;2022-11-25T08:23:34;8.27;;;2.65;;
7529;SDS011;3806;52.270;10.544;2022-11-25T08:26:04;8.90;;;2.97;;
7529;SDS011;3806;52.270;10.544;2022-11-25T08:28:32;8.63;;;2.63;;
7529;SDS011;3806;52.270;10.544;2022-11-25T08:31:05;9.75;;;2.95;;
7529;SDS011;3806;52.270;10.544;2022-11-25T08:33:36;9.88;;;3.58;;
7529;SDS011;3806;52.270;10.544;2022-11-25T08:36:02;7.53;;;3.42;;
7529;SDS011;3806;52.270;10.544;2022-11-25T08:38:29;12.43;;;4.10;;
7529;SDS011;3806;52.270;10.544;2022-11-25T08:40:55;7.55;;;3.30;;
7529;SDS011;3806;52.270;10.544;2022-11-25T08:43:21;6.40;;;2.67;;
7529;SDS011;3806;52.270;10.544;2022-11-25T08:45:47;9.02;;;3.70;;
7529;SDS011;3806;52.270;10.544;2022-11-25T08:48:15;9.43;;;3.60;;
7529;SDS011;3806;52.270;10.544;2022-11-25T08:50:44;6.15;;;2.53;;
7529;SDS011;3806;52.270;10.544;2022-11-25T08:53:14;4.50;;;2.45;;
7529;SDS011;3806;52.270;10.544;2022-11-25T08:55:40;5.38;;;2.58;;
7529;SDS011;3806;52.270;10.544;2022-11-25T08:58:06;10.27;;;3.45;;
7529;SDS011;3806;52.270;10.544;2022-11-25T09:00:35;8.93;;;3.03;;
7529;SDS011;3806;52.270;10.544;2022-11-25T09:03:02;4.95;;;2.10;;
7529;SDS011;3806;52.270;10.544;2022-11-25T09:05:27;8.38;;;2.45;;
7529;SDS011;3806;52.270;10.544;2022-11-25T09:07:59;10.82;;;3.15;;
7529;SDS011;3806;52.270;10.544;2022-11-25T09:10:28;10.82;;;1.90;;
7529;SDS011;3806;52.270;10.544;2022-11-25T09:12:54;4.50;;;2.17;;
7529;SDS011;3806;52.270;10.544;2022-11-25T09:15:19;4.53;;;2.50;;
7529;SDS011;3806;52.270;10.544;2022-11-25T09:17:45;5.72;;;2.15;;
7529;SDS011;3806;52.270;10.544;2022-11-25T09:20:11;5.55;;;2.30;;
7529;SDS011;3806;52.270;10.544;2022-11-25T09:22:37;8.07;;;2.50;;
7529;SDS011;3806;52.270;10.544;2022-11-25T09:25:02;3.97;;;1.95;;
7529;SDS011;3806;52.270;10.544;2022-11-25T09:27:29;4.72;;;1.90;;
7529;SDS011;3806;52.270;10.544;2022-11-25T09:29:55;5.32;;;2.35;;
7529;SDS011;3806;52.270;10.544;2022-11-25T09:32:21;7.35;;;2.55;;
7529;SDS011;3806;52.270;10.544;2022-11-25T09:34:46;6.95;;;1.92;;
7529;SDS011;3806;52.270;10.544;2022-11-25T09:37:15;6.55;;;2.50;;
7529;SDS011;3806;52.270;10.544;2022-11-25T09:39:40;11.88;;;2.70;;
7529;SDS011;3806;52.270;10.544;2022-11-25T09:42:16;5.30;;;2.17;;
7529;SDS011;3806;52.270;10.544;2022-11-25T09:45:22;6.10;;;3.55;;
7529;SDS011;3806;52.270;10.544;2022-11-25T09:53:28;7.03;;;1.88;;
7529;SDS011;3806;52.270;10.544;2022-11-25T09:56:09;11.55;;;2.92;;
7529;SDS011;3806;52.270;10.544;2022-11-25T09:58:51;3.20;;;1.80;;
7529;SDS011;3806;52.270;10.544;2022-11-25T10:01:22;4.70;;;2.53;;
7529;SDS011;3806;52.270;10.544;2022-11-25T10:06:31;10.10;;;2.35;;
7529;SDS011;3806;52.270;10.544;2022-11-25T10:09:11;6.35;;;2.05;;
7529;SDS011;3806;52.270;10.544;2022-11-25T10:16:50;5.15;;;1.90;;
7529;SDS011;3806;52.270;10.544;2022-11-25T10:22:23;7.35;;;2.45;;
7529;SDS011;3806;52.270;10.544;2022-11-25T10:25:05;8.38;;;3.15;;
7529;SDS011;3806;52.270;10.544;2022-11-25T10:27:43;6.03;;;2.13;;
7529;SDS011;3806;52.270;10.544;2022-11-25T10:32:44;6.00;;;2.40;;
7529;SDS011;3806;52.270;10.544;2022-11-25T10:35:32;6.65;;;2.38;;
7529;SDS011;3806;52.270;10.544;2022-11-25T10:38:02;11.23;;;2.83;;
7529;SDS011;3806;52.270;10.544;2022-11-25T10:40:31;8.75;;;2.50;;
7529;SDS011;3806;52.270;10.544;2022-11-25T10:42:57;7.72;;;2.35;;
7529;SDS011;3806;52.270;10.544;2022-11-25T10:45:30;8.95;;;2.58;;
7529;SDS011;3806;52.270;10.544;2022-11-25T10:54:10;6.72;;;2.35;;
7529;SDS011;3806;52.270;10.544;2022-11-25T10:56:53;6.22;;;2.35;;
7529;SDS011;3806;52.270;10.544;2022-11-25T11:04:56;7.05;;;3.30;;
7529;SDS011;3806;52.270;10.544;2022-11-25T11:07:28;9.90;;;2.50;;
7529;SDS011;3806;52.270;10.544;2022-11-25T11:15:27;8.43;;;2.92;;
7529;SDS011;3806;52.270;10.544;2022-11-25T11:17:56;12.30;;;3.10;;
7529;SDS011;3806;52.270;10.544;2022-11-25T11:20:23;9.75;;;3.22;;
7529;SDS011;3806;52.270;10.544;2022-11-25T11:22:56;8.10;;;2.72;;
7529;SDS011;3806;52.270;10.544;2022-11-25T11:25:41;8.88;;;3.38;;
7529;SDS011;3806;52.270;10.544;2022-11-25T11:28:25;4.57;;;2.42;;
7529;SDS011;3806;52.270;10.544;2022-11-25T11:30:57;6.80;;;2.83;;
7529;SDS011;3806;52.270;10.544;2022-11-25T11:41:51;5.45;;;2.67;;
7529;SDS011;3806;52.270;10.544;2022-11-25T11:47:06;4.80;;;2.67;;
7529;SDS011;3806;52.270;10.544;2022-11-25T11:49:49;5.75;;;2.13;;
7529;SDS011;3806;52.270;10.544;2022-11-25T11:52:35;6.32;;;2.72;;
7529;SDS011;3806;52.270;10.544;2022-11-25T11:55:20;5.05;;;1.67;;
7529;SDS011;3806;52.270;10.544;2022-11-25T12:00:44;9.75;;;2.38;;
7529;SDS011;3806;52.270;10.544;2022-11-25T12:03:34;7.65;;;1.92;;
7529;SDS011;3806;52.270;10.544;2022-11-25T12:06:11;6.47;;;1.90;;
7529;SDS011;3806;52.270;10.544;2022-11-25T12:08:56;4.50;;;1.70;;
7529;SDS011;3806;52.270;10.544;2022-11-25T12:11:37;5.60;;;1.92;;
7529;SDS011;3806;52.270;10.544;2022-11-25T12:14:16;7.57;;;2.08;;
7529;SDS011;3806;52.270;10.544;2022-11-25T12:16:56;2.88;;;1.70;;
7529;SDS011;3806;52.270;10.544;2022-11-25T12:22:09;4.47;;;1.88;;
7529;SDS011;3806;52.270;10.544;2022-11-25T12:27:36;8.35;;;1.95;;
7529;SDS011;3806;52.270;10.544;2022-11-25T12:30:17;6.97;;;1.95;;
7529;SDS011;3806;52.270;10.544;2022-11-25T12:33:05;7.57;;;2.20;;
7529;SDS011;3806;52.270;10.544;2022-11-25T12:35:47;3.97;;;1.77;;
7529;SDS011;3806;52.270;10.544;2022-11-25T12:44:36;6.10;;;1.70;;
7529;SDS011;3806;52.270;10.544;2022-11-25T12:47:15;5.57;;;1.92;;
7529;SDS011;3806;52.270;10.544;2022-11-25T12:49:41;7.35;;;2.40;;
7529;SDS011;3806;52.270;10.544;2022-11-25T12:52:18;5.68;;;2.80;;
7529;SDS011;3806;52.270;10.544;2022-11-25T13:00:55;5.25;;;2.15;;
7529;SDS011;3806;52.270;10.544;2022-11-25T13:16:52;10.25;;;2.13;;
7529;SDS011;3806;52.270;10.544;2022-11-25T13:19:20;6.57;;;1.90;;
7529;SDS011;3806;52.270;10.544;2022-11-25T13:24:44;10.63;;;2.20;;
7529;SDS011;3806;52.270;10.544;2022-11-25T13:29:56;4.57;;;1.90;;
7529;SDS011;3806;52.270;10.544;2022-11-25T13:32:24;4.35;;;2.00;;
7529;SDS011;3806;52.270;10.544;2022-11-25T13:34:50;4.80;;;2.28;;
7529;SDS011;3806;52.270;10.544;2022-11-25T13:37:49;5.57;;;1.63;;
7529;SDS011;3806;52.270;10.544;2022-11-25T13:40:19;4.55;;;1.67;;
7529;SDS011;3806;52.270;10.544;2022-11-25T13:42:55;5.32;;;1.83;;
7529;SDS011;3806;52.270;10.544;2022-11-25T13:47:52;10.02;;;2.55;;
7529;SDS011;3806;52.270;10.544;2022-11-25T13:50:20;5.68;;;1.90;;
7529;SDS011;3806;52.270;10.544;2022-11-25T13:55:34;7.68;;;2.25;;
7529;SDS011;3806;52.270;10.544;2022-11-25T14:01:04;13.23;;;2.55;;
7529;SDS011;3806;52.270;10.544;2022-11-25T14:03:48;4.47;;;2.15;;
7529;SDS011;3806;52.270;10.544;2022-11-25T14:06:20;6.38;;;3.10;;
7529;SDS011;3806;52.270;10.544;2022-11-25T14:09:09;8.25;;;1.92;;
7529;SDS011;3806;52.270;10.544;2022-11-25T14:24:51;7.80;;;2.92;;
7529;SDS011;3806;52.270;10.544;2022-11-25T14:27:25;5.80;;;2.00;;
7529;SDS011;3806;52.270;10.544;2022-11-25T14:30:05;6.85;;;2.30;;
7529;SDS011;3806;52.270;10.544;2022-11-25T14:32:35;5.15;;;2.30;;
7529;SDS011;3806;52.270;10.544;2022-11-25T14:35:16;7.63;;;2.78;;
7529;SDS011;3806;52.270;10.544;2022-11-25T14:38:00;6.30;;;2.65;;
7529;SDS011;3806;52.270;10.544;2022-11-25T14:40:33;7.13;;;2.78;;
7529;SDS011;3806;52.270;10.544;2022-11-25T14:43:12;6.78;;;2.25;;
7529;SDS011;3806;52.270;10.544;2022-11-25T14:45:41;9.05;;;2.70;;
7529;SDS011;3806;52.270;10.544;2022-11-25T14:48:13;5.68;;;2.10;;
7529;SDS011;3806;52.270;10.544;2022-11-25T14:50:59;5.53;;;2.65;;
7529;SDS011;3806;52.270;10.544;2022-11-25T14:54:06;3.88;;;2.25;;
7529;SDS011;3806;52.270;10.544;2022-11-25T14:57:08;5.50;;;2.42;;
7529;SDS011;3806;52.270;10.544;2022-11-25T14:59:37;6.72;;;2.97;;
7529;SDS011;3806;52.270;10.544;2022-11-25T15:02:03;4.75;;;2.60;;
7529;SDS011;3806;52.270;10.544;2022-11-25T15:04:29;8.57;;;2.78;;
7529;SDS011;3806;52.270;10.544;2022-11-25T15:06:56;9.02;;;3.03;;
7529;SDS011;3806;52.270;10.544;2022-11-25T15:09:28;10.35;;;3.45;;
7529;SDS011;3806;52.270;10.544;2022-11-25T15:11:56;11.45;;;3.58;;
7529;SDS011;3806;52.270;10.544;2022-11-25T15:14:28;7.80;;;2.35;;
7529;SDS011;3806;52.270;10.544;2022-11-25T15:16:58;8.15;;;3.03;;
7529;SDS011;3806;52.270;10.544;2022-11-25T15:19:30;5.13;;;2.60;;
7529;SDS011;3806;52.270;10.544;2022-11-25T15:21:59;5.10;;;3.05;;
7529;SDS011;3806;52.270;10.544;2022-11-25T15:24:47;9.00;;;3.25;;
7529;SDS011;3806;52.270;10.544;2022-11-25T15:29:41;7.20;;;3.38;;
7529;SDS011;3806;52.270;10.544;2022-11-25T15:32:08;8.55;;;3.95;;
7529;SDS011;3806;52.270;10.544;2022-11-25T15:34:48;12.63;;;3.60;;
7529;SDS011;3806;52.270;10.544;2022-11-25T15:37:15;6.45;;;3.25;;
7529;SDS011;3806;52.270;10.544;2022-11-25T15:39:41;4.38;;;2.80;;
7529;SDS011;3806;52.270;10.544;2022-11-25T15:44:53;9.37;;;2.47;;
7529;SDS011;3806;52.270;10.544;2022-11-25T15:47:24;5.35;;;2.78;;
7529;SDS011;3806;52.270;10.544;2022-11-25T15:50:06;6.65;;;2.90;;
7529;SDS011;3806;52.270;10.544;2022-11-25T15:52:49;4.20;;;2.58;;
7529;SDS011;3806;52.270;10.544;2022-11-25T15:55:29;6.13;;;3.13;;
7529;SDS011;3806;52.270;10.544;2022-11-25T16:00:36;12.43;;;6.25;;
7529;SDS011;3806;52.270;10.544;2022-11-25T16:03:16;8.95;;;4.60;;
7529;SDS011;3806;52.270;10.544;2022-11-25T16:05:53;8.55;;;4.18;;
7529;SDS011;3806;52.270;10.544;2022-11-25T16:08:25;13.32;;;6.03;;
7529;SDS011;3806;52.270;10.544;2022-11-25T16:10:57;13.32;;;6.00;;
7529;SDS011;3806;52.270;10.544;2022-11-25T16:13:34;8.18;;;4.20;;
7529;SDS011;3806;52.270;10.544;2022-11-25T16:16:09;7.70;;;3.83;;
7529;SDS011;3806;52.270;10.544;2022-11-25T16:21:12;8.98;;;4.50;;
7529;SDS011;3806;52.270;10.544;2022-11-25T16:23:46;11.73;;;4.88;;
7529;SDS011;3806;52.270;10.544;2022-11-25T16:26:16;13.60;;;5.45;;
7529;SDS011;3806;52.270;10.544;2022-11-25T16:29:13;14.13;;;4.97;;
7529;SDS011;3806;52.270;10.544;2022-11-25T16:31:41;9.93;;;4.68;;
7529;SDS011;3806;52.270;10.544;2022-11-25T16:34:12;8.82;;;4.07;;
7529;SDS011;3806;52.270;10.544;2022-11-25T16:36:39;10.90;;;5.30;;
7529;SDS011;3806;52.270;10.544;2022-11-25T16:39:05;12.27;;;5.63;;
7529;SDS011;3806;52.270;10.544;2022-11-25T16:41:30;11.82;;;5.07;;
7529;SDS011;3806;52.270;10.544;2022-11-25T16:43:59;12.00;;;4.93;;
7529;SDS011;3806;52.270;10.544;2022-11-25T16:46:25;13.63;;;6.00;;
7529;SDS011;3806;52.270;10.544;2022-11-25T16:48:51;10.45;;;5.32;;
7529;SDS011;3806;52.270;10.544;2022-11-25T16:51:18;8.77;;;5.43;;
7529;SDS011;3806;52.270;10.544;2022-11-25T16:53:44;8.55;;;6.13;;
7529;SDS011;3806;52.270;10.544;2022-11-25T16:56:12;11.55;;;6.72;;
7529;SDS011;3806;52.270;10.544;2022-11-25T16:58:40;10.02;;;4.53;;
7529;SDS011;3806;52.270;10.544;2022-11-25T17:01:08;10.77;;;5.65;;
7529;SDS011;3806;52.270;10.544;2022-11-25T17:03:37;7.65;;;5.10;;
7529;SDS011;3806;52.270;10.544;2022-11-25T17:06:07;8.38;;;4.72;;
7529;SDS011;3806;52.270;10.544;2022-11-25T17:08:44;12.02;;;4.97;;
7529;SDS011;3806;52.270;10.544;2022-11-25T17:11:16;7.97;;;4.90;;
7529;SDS011;3806;52.270;10.544;2022-11-25T17:13:57;12.35;;;4.50;;
7529;SDS011;3806;52.270;10.544;2022-11-25T17:16:25;8.10;;;4.07;;
7529;SDS011;3806;52.270;10.544;2022-11-25T17:18:54;6.40;;;4.22;;
7529;SDS011;3806;52.270;10.544;2022-11-25T17:21:21;8.10;;;3.97;;
7529;SDS011;3806;52.270;10.544;2022-11-25T17:23:50;9.52;;;3.90;;
7529;SDS011;3806;52.270;10.544;2022-11-25T17:26:17;10.55;;;3.63;;